createdAt,value
2019-03-23T00:01:50.485Z,5.63
2019-03-23T00:04:25.317Z,5.52
2019-03-23T00:06:57.529Z,5.52
2019-03-23T00:09:34.262Z,5.51
2019-03-23T00:12:06.784Z,5.50
2019-03-23T00:14:39.298Z,5.55
2019-03-23T00:17:11.922Z,5.55
2019-03-23T00:19:44.420Z,5.58
2019-03-23T00:22:16.950Z,5.52
2019-03-23T00:24:49.560Z,5.51
2019-03-23T00:27:22.088Z,5.41
2019-03-23T00:29:54.707Z,5.42
2019-03-23T00:32:27.360Z,5.39
2019-03-23T00:34:59.934Z,5.34
2019-03-23T00:37:32.455Z,5.31
2019-03-23T00:40:05.820Z,5.37
2019-03-23T00:42:38.374Z,5.24
2019-03-23T00:45:10.896Z,5.21
2019-03-23T00:47:43.405Z,5.17
2019-03-23T00:50:15.994Z,5.12
2019-03-23T00:52:48.526Z,5.15
2019-03-23T00:55:21.051Z,5.06
2019-03-23T00:57:53.563Z,4.94
2019-03-23T01:00:26.023Z,5.07
2019-03-23T01:02:58.551Z,5.11
2019-03-23T01:05:31.046Z,5.12
2019-03-23T01:08:03.563Z,5.06
2019-03-23T01:10:36.035Z,4.94
2019-03-23T01:13:08.537Z,4.95
2019-03-23T01:15:41.038Z,4.92
2019-03-23T01:18:13.567Z,4.92
2019-03-23T01:20:49.896Z,4.93
2019-03-23T01:23:20.506Z,5.03
2019-03-23T01:25:53.009Z,4.98
2019-03-23T01:28:25.509Z,4.94
2019-03-23T01:30:58.056Z,4.89
2019-03-23T01:33:30.497Z,4.91
2019-03-23T01:36:03.012Z,4.89
2019-03-23T01:38:35.502Z,4.84
2019-03-23T01:41:08.020Z,4.83
2019-03-23T01:43:40.513Z,4.81
2019-03-23T01:46:13.025Z,4.83
2019-03-23T01:48:45.503Z,4.80
2019-03-23T01:51:18.019Z,4.80
2019-03-23T01:53:50.491Z,4.70
2019-03-23T01:56:22.979Z,4.66
2019-03-23T01:58:55.488Z,4.64
2019-03-23T02:01:28.010Z,4.58
2019-03-23T02:04:00.515Z,4.54
2019-03-23T02:06:33.005Z,4.40
2019-03-23T02:09:06.580Z,4.35
2019-03-23T02:11:39.093Z,4.29
2019-03-23T02:14:11.591Z,4.29
2019-03-23T02:16:44.110Z,4.37
2019-03-23T02:19:16.614Z,4.28
2019-03-23T02:21:49.110Z,4.29
2019-03-23T02:24:21.600Z,4.31
2019-03-23T02:26:54.175Z,4.32
2019-03-23T02:29:26.662Z,4.32
2019-03-23T02:31:59.154Z,4.24
2019-03-23T02:34:31.637Z,4.22
2019-03-23T02:37:04.130Z,4.20
2019-03-23T02:39:36.605Z,4.08
2019-03-23T02:42:09.202Z,4.08
2019-03-23T02:44:41.618Z,4.03
2019-03-23T02:47:14.157Z,4.00
2019-03-23T02:49:46.631Z,4.07
2019-03-23T02:52:19.180Z,4.01
2019-03-23T02:54:51.653Z,3.99
2019-03-23T02:57:24.152Z,4.01
2019-03-23T02:59:56.630Z,3.88
2019-03-23T03:02:29.142Z,3.90
2019-03-23T03:05:01.704Z,3.92
2019-03-23T03:07:42.003Z,3.94
2019-03-23T03:10:09.077Z,3.85
2019-03-23T03:12:41.578Z,3.91
2019-03-23T03:15:14.063Z,3.84
2019-03-23T03:17:46.564Z,3.77
2019-03-23T03:20:19.053Z,3.80
2019-03-23T03:22:51.555Z,3.81
2019-03-23T03:25:24.120Z,3.88
2019-03-23T03:27:56.624Z,3.87
2019-03-23T03:30:29.247Z,3.87
2019-03-23T03:33:01.782Z,3.84
2019-03-23T03:35:34.271Z,3.86
2019-03-23T03:38:06.789Z,3.82
2019-03-23T03:40:39.329Z,3.80
2019-03-23T03:43:11.825Z,3.75
2019-03-23T03:45:44.343Z,3.73
2019-03-23T03:48:16.806Z,3.73
2019-03-23T03:50:49.358Z,3.67
2019-03-23T03:53:21.828Z,3.66
2019-03-23T03:55:54.352Z,3.59
2019-03-23T03:58:26.857Z,3.63
2019-03-23T04:00:59.363Z,3.63
2019-03-23T04:03:31.839Z,3.58
2019-03-23T04:06:04.357Z,3.51
2019-03-23T04:08:36.851Z,3.50
2019-03-23T04:11:09.338Z,3.49
2019-03-23T04:13:41.846Z,3.48
2019-03-23T04:16:14.347Z,3.42
2019-03-23T04:18:46.869Z,3.36
2019-03-23T04:21:19.378Z,3.38
2019-03-23T04:23:51.860Z,3.35
2019-03-23T04:26:24.362Z,3.31
2019-03-23T04:28:56.849Z,3.24
2019-03-23T04:31:29.401Z,3.24
2019-03-23T04:34:01.886Z,3.07
2019-03-23T04:36:34.376Z,3.00
2019-03-23T04:39:06.896Z,2.94
2019-03-23T04:41:39.387Z,2.96
2019-03-23T04:44:11.900Z,3.07
2019-03-23T04:46:44.384Z,3.11
2019-03-23T04:49:16.874Z,3.11
2019-03-23T04:51:49.426Z,3.11
2019-03-23T04:54:21.847Z,3.12
2019-03-23T04:56:54.345Z,3.08
2019-03-23T04:59:26.829Z,2.98
2019-03-23T05:01:59.344Z,3.05
2019-03-23T05:04:31.866Z,3.05
2019-03-23T05:07:04.384Z,3.02
2019-03-23T05:09:36.871Z,2.95
2019-03-23T05:12:09.374Z,2.91
2019-03-23T05:14:41.858Z,2.96
2019-03-23T05:17:14.363Z,3.02
2019-03-23T05:19:46.838Z,3.03
2019-03-23T05:22:19.351Z,3.11
2019-03-23T05:24:51.878Z,3.11
2019-03-23T05:27:24.411Z,3.16
2019-03-23T05:29:56.895Z,3.19
2019-03-23T05:32:29.414Z,3.16
2019-03-23T05:35:01.902Z,3.09
2019-03-23T05:37:34.456Z,3.19
2019-03-23T05:40:06.961Z,3.16
2019-03-23T05:42:39.489Z,3.20
2019-03-23T05:45:11.969Z,3.20
2019-03-23T05:47:44.508Z,3.23
2019-03-23T05:50:16.998Z,3.30
2019-03-23T05:52:49.515Z,3.32
2019-03-23T05:55:22.054Z,3.43
2019-03-23T05:57:54.566Z,3.41
2019-03-23T06:00:27.054Z,3.55
2019-03-23T06:02:59.572Z,3.73
2019-03-23T06:05:32.059Z,3.88
2019-03-23T06:08:04.577Z,4.04
2019-03-23T06:10:37.071Z,4.20
2019-03-23T06:13:09.569Z,4.34
2019-03-23T06:15:42.069Z,4.39
2019-03-23T06:18:14.578Z,4.45
2019-03-23T06:20:47.056Z,4.63
2019-03-23T06:23:19.581Z,4.79
2019-03-23T06:25:52.086Z,5.00
2019-03-23T06:28:24.580Z,5.38
2019-03-23T06:30:57.069Z,5.64
2019-03-23T06:33:29.578Z,5.97
2019-03-23T06:36:02.097Z,6.45
2019-03-23T06:38:34.570Z,6.82
2019-03-23T06:41:07.067Z,7.28
2019-03-23T06:43:39.622Z,7.50
2019-03-23T06:46:12.122Z,7.78
2019-03-23T06:48:44.624Z,8.17
2019-03-23T06:51:17.147Z,8.60
2019-03-23T06:53:49.626Z,9.05
2019-03-23T06:56:22.119Z,9.48
2019-03-23T06:58:54.691Z,9.79
2019-03-23T07:01:27.233Z,9.78
2019-03-23T07:04:00.601Z,10.05
2019-03-23T07:06:33.199Z,10.46
2019-03-23T07:09:15.711Z,10.61
2019-03-23T07:11:40.868Z,10.93
2019-03-23T07:14:13.359Z,10.81
2019-03-23T07:16:45.915Z,10.83
2019-03-23T07:19:18.444Z,10.41
2019-03-23T07:21:50.971Z,10.25
2019-03-23T07:24:23.509Z,10.16
2019-03-23T07:26:56.026Z,10.40
2019-03-23T07:29:28.509Z,10.48
2019-03-23T07:32:05.673Z,10.40
2019-03-23T07:34:35.468Z,10.42
2019-03-23T07:37:08.007Z,10.37
2019-03-23T07:39:40.530Z,10.51
2019-03-23T07:42:13.088Z,10.74
2019-03-23T07:44:45.605Z,10.92
2019-03-23T07:47:18.133Z,11.13
2019-03-23T07:49:50.648Z,11.45
2019-03-23T07:52:23.234Z,11.65
2019-03-23T07:54:56.425Z,11.81
2019-03-23T07:57:28.981Z,11.86
2019-03-23T08:00:01.519Z,12.04
2019-03-23T08:02:34.056Z,12.30
2019-03-23T08:05:07.070Z,12.45
2019-03-23T08:07:39.752Z,12.76
2019-03-23T08:10:24.244Z,12.88
2019-03-23T08:12:56.770Z,13.17
2019-03-23T08:15:29.506Z,13.39
2019-03-23T08:18:02.003Z,13.61
2019-03-23T08:20:34.499Z,13.81
2019-03-23T08:23:07.043Z,13.90
2019-03-23T08:25:39.598Z,14.06
2019-03-23T08:28:12.111Z,14.18
2019-03-23T08:30:44.611Z,14.35
2019-03-23T08:33:18.264Z,14.53
2019-03-23T08:35:50.900Z,14.75
2019-03-23T08:38:23.434Z,14.82
2019-03-23T08:40:55.978Z,14.83
2019-03-23T08:43:28.518Z,15.05
2019-03-23T08:46:01.063Z,15.35
2019-03-23T08:48:33.563Z,15.44
2019-03-23T08:51:06.073Z,15.81
2019-03-23T08:53:38.613Z,16.01
2019-03-23T08:56:11.136Z,16.11
2019-03-23T08:58:42.102Z,16.36
2019-03-23T09:01:14.603Z,16.50
2019-03-23T09:03:52.306Z,16.67
2019-03-23T09:06:21.560Z,16.78
2019-03-23T09:08:54.080Z,16.95
2019-03-23T09:11:26.620Z,17.08
2019-03-23T09:13:59.121Z,17.13
2019-03-23T09:16:31.685Z,17.21
2019-03-23T09:19:04.180Z,17.33
2019-03-23T09:21:36.723Z,17.53
2019-03-23T09:24:09.243Z,17.60
2019-03-23T09:26:41.760Z,17.66
2019-03-23T09:29:14.256Z,17.85
2019-03-23T09:31:46.772Z,17.97
2019-03-23T09:34:19.266Z,18.07
2019-03-23T09:36:51.829Z,18.10
2019-03-23T09:39:24.342Z,18.12
2019-03-23T09:41:56.912Z,18.22
2019-03-23T09:44:29.465Z,18.20
2019-03-23T09:47:02.000Z,18.28
2019-03-23T09:49:34.488Z,18.37
2019-03-23T09:52:07.015Z,18.43
2019-03-23T09:54:39.571Z,18.59
2019-03-23T09:57:12.086Z,18.52
2019-03-23T09:59:44.604Z,18.68
2019-03-23T10:02:17.164Z,18.73
2019-03-23T10:04:49.693Z,18.81
2019-03-23T10:07:22.273Z,18.79
2019-03-23T10:09:54.785Z,18.94
2019-03-23T10:12:27.355Z,18.85
2019-03-23T10:14:59.898Z,18.98
2019-03-23T10:17:32.408Z,19.03
2019-03-23T10:20:05.047Z,19.09
2019-03-23T10:22:37.599Z,19.05
2019-03-23T10:25:10.134Z,19.21
2019-03-23T10:27:42.718Z,19.14
2019-03-23T10:30:15.287Z,19.16
2019-03-23T10:32:47.823Z,19.30
2019-03-23T10:35:20.356Z,19.30
2019-03-23T10:37:52.851Z,19.45
2019-03-23T10:40:32.485Z,19.50
2019-03-23T10:42:59.816Z,19.44
2019-03-23T10:45:32.371Z,19.52
2019-03-23T10:48:04.927Z,19.49
2019-03-23T10:50:37.474Z,19.40
2019-03-23T10:53:10.063Z,19.48
2019-03-23T10:55:42.682Z,19.43
2019-03-23T10:58:15.221Z,19.48
2019-03-23T11:00:47.802Z,19.42
2019-03-23T11:03:20.326Z,19.52
2019-03-23T11:05:52.861Z,19.53
2019-03-23T11:08:25.383Z,19.58
2019-03-23T11:10:57.968Z,19.63
2019-03-23T11:13:30.487Z,19.46
2019-03-23T11:16:03.061Z,19.42
2019-03-23T11:18:37.732Z,19.48
2019-03-23T11:21:10.012Z,19.42
2019-03-23T11:23:42.538Z,19.45
2019-03-23T11:26:15.169Z,19.55
2019-03-23T11:28:47.678Z,19.46
2019-03-23T11:31:20.233Z,19.49
2019-03-23T11:33:52.753Z,19.41
2019-03-23T11:36:25.277Z,19.49
2019-03-23T11:38:57.782Z,19.38
2019-03-23T11:41:30.330Z,19.38
2019-03-23T11:44:02.890Z,19.40
2019-03-23T11:46:35.402Z,19.36
2019-03-23T11:49:07.933Z,19.35
2019-03-23T11:51:40.484Z,19.33
2019-03-23T11:54:13.016Z,19.30
2019-03-23T11:56:45.578Z,19.27
2019-03-23T11:59:18.107Z,19.30
2019-03-23T12:01:52.042Z,19.34
2019-03-23T12:04:25.221Z,19.29
2019-03-23T12:06:57.912Z,19.42
2019-03-23T12:09:30.439Z,19.33
2019-03-23T12:12:02.995Z,19.21
2019-03-23T12:14:35.543Z,19.04
2019-03-23T12:17:08.111Z,19.18
2019-03-23T12:19:40.699Z,19.20
2019-03-23T12:22:13.211Z,19.24
2019-03-23T12:24:45.717Z,19.21
2019-03-23T12:27:18.272Z,19.10
2019-03-23T12:29:50.768Z,19.18
2019-03-23T12:32:23.341Z,19.12
2019-03-23T12:34:55.861Z,19.24
2019-03-23T12:37:28.375Z,19.22
2019-03-23T12:40:00.902Z,19.19
2019-03-23T12:42:33.461Z,19.18
2019-03-23T12:45:06.833Z,19.18
2019-03-23T12:47:39.381Z,19.04
2019-03-23T12:50:12.069Z,19.16
2019-03-23T12:52:44.616Z,19.04
2019-03-23T12:55:17.167Z,19.06
2019-03-23T12:57:49.674Z,19.16
2019-03-23T13:00:22.221Z,19.18
2019-03-23T13:02:54.747Z,19.27
2019-03-23T13:05:27.257Z,19.16
2019-03-23T13:07:59.826Z,19.21
2019-03-23T13:10:32.349Z,19.18
2019-03-23T13:13:04.847Z,19.13
2019-03-23T13:15:37.356Z,19.14
2019-03-23T13:18:09.990Z,19.08
2019-03-23T13:20:42.533Z,19.10
2019-03-23T13:23:15.086Z,19.13
2019-03-23T13:25:47.647Z,19.22
2019-03-23T13:28:20.165Z,19.25
2019-03-23T13:30:52.674Z,19.31
2019-03-23T13:33:25.238Z,19.22
2019-03-23T13:35:57.789Z,19.18
2019-03-23T13:38:30.331Z,19.08
2019-03-23T13:41:03.364Z,19.06
2019-03-23T13:43:35.920Z,19.07
2019-03-23T13:46:08.462Z,19.01
2019-03-23T13:48:40.991Z,19.14
2019-03-23T13:51:13.548Z,19.01
2019-03-23T13:53:46.078Z,19.17
2019-03-23T13:56:18.619Z,19.19
2019-03-23T13:58:51.089Z,19.03
2019-03-23T14:01:23.702Z,19.11
2019-03-23T14:03:56.228Z,19.18
2019-03-23T14:06:28.809Z,19.26
2019-03-23T14:09:01.333Z,19.23
2019-03-23T14:11:33.902Z,19.18
2019-03-23T14:14:06.450Z,19.19
2019-03-23T14:16:39.043Z,19.33
2019-03-23T14:19:11.571Z,19.28
2019-03-23T14:21:44.097Z,19.16
2019-03-23T14:24:16.616Z,19.16
2019-03-23T14:26:49.161Z,19.07
2019-03-23T14:29:21.660Z,19.25
2019-03-23T14:31:54.205Z,19.10
2019-03-23T14:34:26.728Z,19.11
2019-03-23T14:36:59.289Z,18.99
2019-03-23T14:39:31.827Z,19.03
2019-03-23T14:42:04.985Z,19.01
2019-03-23T14:44:37.921Z,19.12
2019-03-23T14:47:10.501Z,18.95
2019-03-23T14:49:43.052Z,18.84
2019-03-23T14:52:15.684Z,18.83
2019-03-23T14:54:48.314Z,18.82
2019-03-23T14:57:20.954Z,18.77
2019-03-23T14:59:53.489Z,18.68
2019-03-23T15:02:25.993Z,18.78
2019-03-23T15:04:58.602Z,18.68
2019-03-23T15:07:31.134Z,18.62
2019-03-23T15:10:05.039Z,18.55
2019-03-23T15:12:37.527Z,18.58
2019-03-23T15:15:10.134Z,18.54
2019-03-23T15:17:48.741Z,18.42
2019-03-23T15:20:17.201Z,18.41
2019-03-23T15:22:49.704Z,18.40
2019-03-23T15:25:22.258Z,18.35
2019-03-23T15:27:54.804Z,18.53
2019-03-23T15:30:27.360Z,18.43
2019-03-23T15:32:59.878Z,18.38
2019-03-23T15:35:32.410Z,18.34
2019-03-23T15:38:04.997Z,18.35
2019-03-23T15:40:37.584Z,18.24
2019-03-23T15:43:10.157Z,18.23
2019-03-23T15:45:42.690Z,18.14
2019-03-23T15:48:15.211Z,18.10
2019-03-23T15:50:47.790Z,18.04
2019-03-23T15:53:20.306Z,18.00
2019-03-23T15:55:52.910Z,18.00
2019-03-23T15:58:25.604Z,18.04
2019-03-23T16:00:58.478Z,17.99
2019-03-23T16:03:31.012Z,17.99
2019-03-23T16:06:03.671Z,17.98
2019-03-23T16:08:36.181Z,17.90
2019-03-23T16:11:08.757Z,17.88
2019-03-23T16:13:41.257Z,17.85
2019-03-23T16:16:13.822Z,17.84
2019-03-23T16:18:49.137Z,17.74
2019-03-23T16:21:21.685Z,17.67
2019-03-23T16:23:54.210Z,17.61
2019-03-23T16:26:26.790Z,17.55
2019-03-23T16:28:59.497Z,17.50
2019-03-23T16:31:32.081Z,17.51
2019-03-23T16:34:04.694Z,17.37
2019-03-23T16:36:37.337Z,17.31
2019-03-23T16:39:09.863Z,17.27
2019-03-23T16:41:42.421Z,17.21
2019-03-23T16:44:14.964Z,17.18
2019-03-23T16:46:47.553Z,17.06
2019-03-23T16:49:20.106Z,16.99
2019-03-23T16:51:52.743Z,16.90
2019-03-23T16:54:25.288Z,16.84
2019-03-23T16:56:57.833Z,16.80
2019-03-23T16:59:30.434Z,16.73
2019-03-23T17:02:02.965Z,16.66
2019-03-23T17:04:35.549Z,16.59
2019-03-23T17:07:08.066Z,16.51
2019-03-23T17:09:40.642Z,16.43
2019-03-23T17:12:13.212Z,16.35
2019-03-23T17:14:45.745Z,16.27
2019-03-23T17:17:18.306Z,16.21
2019-03-23T17:19:50.816Z,16.09
2019-03-23T17:22:23.353Z,15.99
2019-03-23T17:24:55.895Z,15.89
2019-03-23T17:27:28.466Z,15.80
2019-03-23T17:30:01.063Z,15.66
2019-03-23T17:32:33.586Z,15.53
2019-03-23T17:35:06.864Z,15.41
2019-03-23T17:37:39.378Z,15.27
2019-03-23T17:40:11.927Z,15.13
2019-03-23T17:42:44.424Z,15.02
2019-03-23T17:45:17.089Z,14.86
2019-03-23T17:47:49.735Z,14.74
2019-03-23T17:50:22.267Z,14.58
2019-03-23T17:52:54.783Z,14.43
2019-03-23T17:55:27.366Z,14.31
2019-03-23T17:57:59.898Z,14.15
2019-03-23T18:00:32.438Z,14.02
2019-03-23T18:03:05.026Z,13.92
2019-03-23T18:05:37.600Z,13.76
2019-03-23T18:08:10.125Z,13.61
2019-03-23T18:10:42.673Z,13.50
2019-03-23T18:13:16.852Z,13.41
2019-03-23T18:15:49.709Z,13.29
2019-03-23T18:18:22.325Z,13.21
2019-03-23T18:20:54.922Z,13.15
2019-03-23T18:23:27.429Z,13.05
2019-03-23T18:26:00.007Z,12.93
2019-03-23T18:28:32.620Z,12.86
2019-03-23T18:31:05.224Z,12.73
2019-03-23T18:33:37.753Z,12.66
2019-03-23T18:36:10.353Z,12.52
2019-03-23T18:38:42.977Z,12.47
2019-03-23T18:41:15.754Z,12.40
2019-03-23T18:43:48.802Z,12.31
2019-03-23T18:46:21.377Z,12.24
2019-03-23T18:48:53.923Z,12.16
2019-03-23T18:51:26.461Z,12.08
2019-03-23T18:53:59.221Z,12.04
2019-03-23T18:56:31.827Z,11.88
2019-03-23T18:59:04.417Z,11.80
2019-03-23T19:01:37.110Z,11.78
2019-03-23T19:04:09.867Z,11.65
2019-03-23T19:06:42.630Z,11.60
2019-03-23T19:09:15.318Z,11.51
2019-03-23T19:11:47.861Z,11.47
2019-03-23T19:14:20.415Z,11.40
2019-03-23T19:16:53.125Z,11.34
2019-03-23T19:19:25.855Z,11.23
2019-03-23T19:21:58.442Z,11.17
2019-03-23T19:24:32.779Z,11.09
2019-03-23T19:27:05.355Z,11.05
2019-03-23T19:29:37.978Z,10.81
2019-03-23T19:32:10.740Z,10.81
2019-03-23T19:34:43.502Z,10.73
2019-03-23T19:37:16.209Z,10.66
2019-03-23T19:39:48.886Z,10.65
2019-03-23T19:42:21.404Z,10.56
2019-03-23T19:44:54.133Z,10.54
2019-03-23T19:47:26.716Z,10.55
2019-03-23T19:49:59.314Z,10.47
2019-03-23T19:52:33.597Z,10.38
2019-03-23T19:55:06.740Z,10.29
2019-03-23T19:57:39.370Z,10.23
2019-03-23T20:00:11.991Z,10.17
2019-03-23T20:02:44.633Z,10.07
2019-03-23T20:05:17.283Z,9.94
2019-03-23T20:07:49.826Z,9.92
2019-03-23T20:10:22.493Z,9.90
2019-03-23T20:12:55.093Z,9.81
2019-03-23T20:15:27.653Z,9.79
2019-03-23T20:18:00.249Z,9.76
2019-03-23T20:20:32.827Z,9.75
2019-03-23T20:23:05.345Z,9.69
2019-03-23T20:25:39.710Z,9.58
2019-03-23T20:28:12.359Z,9.52
2019-03-23T20:30:46.615Z,9.48
2019-03-23T20:33:19.844Z,9.43
2019-03-23T20:35:52.666Z,9.40
2019-03-23T20:38:25.340Z,9.33
2019-03-23T20:40:57.917Z,9.28
2019-03-23T20:43:30.918Z,9.27
2019-03-23T20:46:03.631Z,9.32
2019-03-23T20:48:36.817Z,9.19
2019-03-23T20:51:09.722Z,9.15
2019-03-23T20:53:42.271Z,9.22
2019-03-23T20:56:14.824Z,9.16
2019-03-23T20:58:47.352Z,9.15
2019-03-23T21:01:20.024Z,9.07
2019-03-23T21:03:52.566Z,9.01
2019-03-23T21:06:25.168Z,9.01
2019-03-23T21:08:57.701Z,8.97
2019-03-23T21:11:30.288Z,8.85
2019-03-23T21:14:03.094Z,8.78
2019-03-23T21:16:35.679Z,8.75
2019-03-23T21:19:08.269Z,8.70
2019-03-23T21:21:40.925Z,8.71
2019-03-23T21:24:13.530Z,8.59
2019-03-23T21:26:47.897Z,8.52
2019-03-23T21:29:21.651Z,8.46
2019-03-23T21:31:54.222Z,8.44
2019-03-23T21:34:26.815Z,8.35
2019-03-23T21:37:00.470Z,8.26
2019-03-23T21:39:32.993Z,8.21
2019-03-23T21:42:05.648Z,8.13
2019-03-23T21:44:38.212Z,8.13
2019-03-23T21:47:10.797Z,8.16
2019-03-23T21:49:43.361Z,8.18
2019-03-23T21:52:15.998Z,8.11
2019-03-23T21:54:48.637Z,8.03
2019-03-23T21:57:21.191Z,7.98
2019-03-23T21:59:53.789Z,7.89
2019-03-23T22:02:27.485Z,7.80
2019-03-23T22:04:59.995Z,7.77
2019-03-23T22:07:32.550Z,7.74
2019-03-23T22:10:06.640Z,7.72
2019-03-23T22:12:39.302Z,7.71
2019-03-23T22:15:11.934Z,7.62
2019-03-23T22:17:44.569Z,7.62
2019-03-23T22:20:17.151Z,7.55
2019-03-23T22:22:49.942Z,7.49
2019-03-23T22:25:22.589Z,7.49
2019-03-23T22:27:55.519Z,7.36
2019-03-23T22:30:28.087Z,7.38
2019-03-23T22:33:00.953Z,7.41
2019-03-23T22:35:35.383Z,7.42
2019-03-23T22:38:08.003Z,7.43
2019-03-23T22:40:40.766Z,7.43
2019-03-23T22:43:13.453Z,7.44
2019-03-23T22:45:46.112Z,7.37
2019-03-23T22:48:18.635Z,7.35
2019-03-23T22:50:51.217Z,7.31
2019-03-23T22:53:23.744Z,7.28
2019-03-23T22:55:56.459Z,7.17
2019-03-23T22:58:29.074Z,7.16
2019-03-23T23:01:01.858Z,7.09
2019-03-23T23:03:34.383Z,7.04
2019-03-23T23:06:08.110Z,6.99
2019-03-23T23:08:40.721Z,6.93
2019-03-23T23:11:13.270Z,6.90
2019-03-23T23:13:45.794Z,6.83
2019-03-23T23:16:18.355Z,6.84
2019-03-23T23:18:50.889Z,6.79
2019-03-23T23:21:23.437Z,6.74
2019-03-23T23:23:55.937Z,6.72
2019-03-23T23:26:28.580Z,6.70
2019-03-23T23:29:01.227Z,6.63
2019-03-23T23:31:33.763Z,6.68
2019-03-23T23:34:06.375Z,6.68
2019-03-23T23:36:39.977Z,6.57
2019-03-23T23:39:12.471Z,6.54
2019-03-23T23:41:45.020Z,6.61
2019-03-23T23:44:17.537Z,6.58
2019-03-23T23:46:50.170Z,6.50
2019-03-23T23:49:22.781Z,6.46
2019-03-23T23:51:55.289Z,6.46
2019-03-23T23:54:29.007Z,6.47
2019-03-23T23:57:01.759Z,6.41
2019-03-23T23:59:34.261Z,6.36
